sensor_id;sensor_type;location;lat;lon;timestamp;P1;durP1;ratioP1;P2;durP2;ratioP2
68176;SDS011;56478;50.982;7.032;2022-09-17T00:02:00;3.22;;;1.80;;
68176;SDS011;56478;50.982;7.032;2022-09-17T00:04:27;4.95;;;1.70;;
68176;SDS011;56478;50.982;7.032;2022-09-17T00:06:52;5.18;;;1.92;;
68176;SDS011;56478;50.982;7.032;2022-09-17T00:09:18;6.60;;;2.20;;
68176;SDS011;56478;50.982;7.032;2022-09-17T00:11:44;3.88;;;1.60;;
68176;SDS011;56478;50.982;7.032;2022-09-17T00:14:14;6.82;;;2.10;;
68176;SDS011;56478;50.982;7.032;2022-09-17T00:16:42;6.30;;;2.45;;
68176;SDS011;56478;50.982;7.032;2022-09-17T00:19:14;6.28;;;2.72;;
68176;SDS011;56478;50.982;7.032;2022-09-17T00:21:41;5.13;;;1.80;;
68176;SDS011;56478;50.982;7.032;2022-09-17T00:24:08;6.93;;;2.17;;
68176;SDS011;56478;50.982;7.032;2022-09-17T00:26:35;4.45;;;2.10;;
68176;SDS011;56478;50.982;7.032;2022-09-17T00:29:02;4.80;;;2.17;;
68176;SDS011;56478;50.982;7.032;2022-09-17T00:31:28;5.50;;;3.30;;
68176;SDS011;56478;50.982;7.032;2022-09-17T00:33:55;6.00;;;2.42;;
68176;SDS011;56478;50.982;7.032;2022-09-17T00:36:20;3.92;;;2.22;;
68176;SDS011;56478;50.982;7.032;2022-09-17T00:38:50;5.65;;;2.15;;
68176;SDS011;56478;50.982;7.032;2022-09-17T00:41:17;6.38;;;2.08;;
68176;SDS011;56478;50.982;7.032;2022-09-17T00:48:53;4.63;;;1.67;;
68176;SDS011;56478;50.982;7.032;2022-09-17T00:51:21;5.72;;;1.70;;
68176;SDS011;56478;50.982;7.032;2022-09-17T00:54:10;7.03;;;2.25;;
68176;SDS011;56478;50.982;7.032;2022-09-17T00:56:37;5.05;;;1.85;;
68176;SDS011;56478;50.982;7.032;2022-09-17T00:59:05;5.78;;;1.77;;
68176;SDS011;56478;50.982;7.032;2022-09-17T01:01:31;4.65;;;2.40;;
68176;SDS011;56478;50.982;7.032;2022-09-17T01:03:58;8.80;;;2.40;;
68176;SDS011;56478;50.982;7.032;2022-09-17T01:06:27;4.60;;;1.90;;
68176;SDS011;56478;50.982;7.032;2022-09-17T01:09:41;7.50;;;2.20;;
68176;SDS011;56478;50.982;7.032;2022-09-17T01:14:49;5.28;;;2.10;;
68176;SDS011;56478;50.982;7.032;2022-09-17T01:28:33;9.60;;;2.33;;
68176;SDS011;56478;50.982;7.032;2022-09-17T01:33:39;8.32;;;2.95;;
68176;SDS011;56478;50.982;7.032;2022-09-17T01:39:09;7.45;;;2.80;;
68176;SDS011;56478;50.982;7.032;2022-09-17T01:44:37;6.78;;;3.60;;
68176;SDS011;56478;50.982;7.032;2022-09-17T01:48:04;8.68;;;3.50;;
68176;SDS011;56478;50.982;7.032;2022-09-17T01:50:15;9.32;;;3.15;;
68176;SDS011;56478;50.982;7.032;2022-09-17T01:52:45;11.43;;;3.30;;
68176;SDS011;56478;50.982;7.032;2022-09-17T01:57:44;7.78;;;3.35;;
68176;SDS011;56478;50.982;7.032;2022-09-17T02:00:17;6.10;;;2.80;;
68176;SDS011;56478;50.982;7.032;2022-09-17T02:05:38;6.40;;;2.33;;
68176;SDS011;56478;50.982;7.032;2022-09-17T02:08:22;6.63;;;2.35;;
68176;SDS011;56478;50.982;7.032;2022-09-17T02:11:02;5.05;;;2.42;;
68176;SDS011;56478;50.982;7.032;2022-09-17T02:13:32;4.00;;;2.08;;
68176;SDS011;56478;50.982;7.032;2022-09-17T02:21:53;4.95;;;1.90;;
68176;SDS011;56478;50.982;7.032;2022-09-17T02:24:26;8.43;;;3.13;;
68176;SDS011;56478;50.982;7.032;2022-09-17T02:27:05;6.55;;;2.50;;
68176;SDS011;56478;50.982;7.032;2022-09-17T02:29:37;7.03;;;2.50;;
68176;SDS011;56478;50.982;7.032;2022-09-17T02:32:09;6.53;;;2.65;;
68176;SDS011;56478;50.982;7.032;2022-09-17T02:34:36;5.90;;;2.92;;
68176;SDS011;56478;50.982;7.032;2022-09-17T02:37:02;11.45;;;3.03;;
68176;SDS011;56478;50.982;7.032;2022-09-17T02:39:29;5.00;;;2.70;;
68176;SDS011;56478;50.982;7.032;2022-09-17T03:01:03;8.13;;;2.72;;
68176;SDS011;56478;50.982;7.032;2022-09-17T03:03:42;7.18;;;3.80;;
68176;SDS011;56478;50.982;7.032;2022-09-17T03:06:09;4.22;;;2.60;;
68176;SDS011;56478;50.982;7.032;2022-09-17T03:08:35;7.35;;;2.75;;
68176;SDS011;56478;50.982;7.032;2022-09-17T03:11:04;4.38;;;2.35;;
68176;SDS011;56478;50.982;7.032;2022-09-17T03:13:32;6.93;;;2.75;;
68176;SDS011;56478;50.982;7.032;2022-09-17T03:15:59;6.90;;;2.78;;
68176;SDS011;56478;50.982;7.032;2022-09-17T03:18:24;7.88;;;2.70;;
68176;SDS011;56478;50.982;7.032;2022-09-17T03:20:50;7.32;;;2.90;;
68176;SDS011;56478;50.982;7.032;2022-09-17T03:23:15;9.38;;;2.78;;
68176;SDS011;56478;50.982;7.032;2022-09-17T03:25:40;7.90;;;3.00;;
68176;SDS011;56478;50.982;7.032;2022-09-17T03:28:06;6.32;;;2.58;;
68176;SDS011;56478;50.982;7.032;2022-09-17T03:30:32;6.50;;;2.60;;
68176;SDS011;56478;50.982;7.032;2022-09-17T03:32:57;6.07;;;2.63;;
68176;SDS011;56478;50.982;7.032;2022-09-17T03:35:23;8.43;;;2.65;;
68176;SDS011;56478;50.982;7.032;2022-09-17T03:37:48;5.32;;;2.00;;
68176;SDS011;56478;50.982;7.032;2022-09-17T03:40:14;9.88;;;2.10;;
68176;SDS011;56478;50.982;7.032;2022-09-17T03:42:39;8.73;;;2.40;;
68176;SDS011;56478;50.982;7.032;2022-09-17T03:45:05;7.03;;;2.17;;
68176;SDS011;56478;50.982;7.032;2022-09-17T03:47:31;7.78;;;1.90;;
68176;SDS011;56478;50.982;7.032;2022-09-17T03:49:56;10.25;;;1.98;;
68176;SDS011;56478;50.982;7.032;2022-09-17T03:52:22;6.60;;;1.70;;
68176;SDS011;56478;50.982;7.032;2022-09-17T03:54:47;14.07;;;2.30;;
68176;SDS011;56478;50.982;7.032;2022-09-17T03:57:13;6.25;;;1.70;;
68176;SDS011;56478;50.982;7.032;2022-09-17T03:59:39;7.45;;;2.08;;
68176;SDS011;56478;50.982;7.032;2022-09-17T04:02:04;7.63;;;2.30;;
68176;SDS011;56478;50.982;7.032;2022-09-17T04:04:30;7.15;;;2.15;;
68176;SDS011;56478;50.982;7.032;2022-09-17T04:06:55;6.43;;;2.20;;
68176;SDS011;56478;50.982;7.032;2022-09-17T04:09:21;8.50;;;2.30;;
68176;SDS011;56478;50.982;7.032;2022-09-17T04:11:46;6.43;;;1.92;;
68176;SDS011;56478;50.982;7.032;2022-09-17T04:14:12;7.72;;;1.83;;
68176;SDS011;56478;50.982;7.032;2022-09-17T04:16:37;7.38;;;2.00;;
68176;SDS011;56478;50.982;7.032;2022-09-17T04:19:03;7.63;;;1.85;;
68176;SDS011;56478;50.982;7.032;2022-09-17T04:21:28;5.46;;;1.72;;
68176;SDS011;56478;50.982;7.032;2022-09-17T04:23:53;6.32;;;1.80;;
68176;SDS011;56478;50.982;7.032;2022-09-17T04:26:19;6.57;;;2.00;;
68176;SDS011;56478;50.982;7.032;2022-09-17T04:28:45;7.40;;;2.10;;
68176;SDS011;56478;50.982;7.032;2022-09-17T04:31:10;5.15;;;1.60;;
68176;SDS011;56478;50.982;7.032;2022-09-17T04:33:35;7.70;;;1.70;;
68176;SDS011;56478;50.982;7.032;2022-09-17T04:36:02;6.32;;;1.80;;
68176;SDS011;56478;50.982;7.032;2022-09-17T04:38:27;7.78;;;2.30;;
68176;SDS011;56478;50.982;7.032;2022-09-17T04:40:53;10.73;;;2.55;;
68176;SDS011;56478;50.982;7.032;2022-09-17T04:43:21;6.32;;;2.40;;
68176;SDS011;56478;50.982;7.032;2022-09-17T04:45:47;8.82;;;2.40;;
68176;SDS011;56478;50.982;7.032;2022-09-17T04:48:14;10.07;;;2.60;;
68176;SDS011;56478;50.982;7.032;2022-09-17T04:50:40;8.23;;;2.40;;
68176;SDS011;56478;50.982;7.032;2022-09-17T04:53:06;7.38;;;2.28;;
68176;SDS011;56478;50.982;7.032;2022-09-17T04:55:31;7.18;;;2.20;;
68176;SDS011;56478;50.982;7.032;2022-09-17T04:57:57;10.00;;;2.42;;
68176;SDS011;56478;50.982;7.032;2022-09-17T05:00:23;3.75;;;1.73;;
68176;SDS011;56478;50.982;7.032;2022-09-17T05:02:50;8.40;;;2.58;;
68176;SDS011;56478;50.982;7.032;2022-09-17T05:05:17;5.22;;;1.85;;
68176;SDS011;56478;50.982;7.032;2022-09-17T05:07:44;9.13;;;2.15;;
68176;SDS011;56478;50.982;7.032;2022-09-17T05:10:10;11.50;;;2.38;;
68176;SDS011;56478;50.982;7.032;2022-09-17T05:12:36;7.45;;;2.03;;
68176;SDS011;56478;50.982;7.032;2022-09-17T05:15:02;7.03;;;1.90;;
68176;SDS011;56478;50.982;7.032;2022-09-17T05:17:29;7.82;;;1.95;;
68176;SDS011;56478;50.982;7.032;2022-09-17T05:19:55;6.55;;;1.80;;
68176;SDS011;56478;50.982;7.032;2022-09-17T05:22:20;8.65;;;2.70;;
68176;SDS011;56478;50.982;7.032;2022-09-17T05:24:46;9.82;;;2.10;;
68176;SDS011;56478;50.982;7.032;2022-09-17T05:27:11;7.80;;;2.22;;
68176;SDS011;56478;50.982;7.032;2022-09-17T05:29:37;9.32;;;2.05;;
68176;SDS011;56478;50.982;7.032;2022-09-17T05:32:04;8.15;;;2.30;;
68176;SDS011;56478;50.982;7.032;2022-09-17T05:34:30;10.27;;;2.38;;
68176;SDS011;56478;50.982;7.032;2022-09-17T05:36:55;9.63;;;2.53;;
68176;SDS011;56478;50.982;7.032;2022-09-17T05:39:21;5.57;;;2.35;;
68176;SDS011;56478;50.982;7.032;2022-09-17T05:41:52;5.15;;;2.17;;
68176;SDS011;56478;50.982;7.032;2022-09-17T05:44:18;8.63;;;2.65;;
68176;SDS011;56478;50.982;7.032;2022-09-17T05:46:44;9.07;;;2.40;;
68176;SDS011;56478;50.982;7.032;2022-09-17T05:49:11;7.07;;;2.70;;
68176;SDS011;56478;50.982;7.032;2022-09-17T05:51:37;9.05;;;2.67;;
68176;SDS011;56478;50.982;7.032;2022-09-17T05:54:02;6.97;;;2.75;;
68176;SDS011;56478;50.982;7.032;2022-09-17T05:56:28;8.35;;;2.75;;
68176;SDS011;56478;50.982;7.032;2022-09-17T05:58:54;9.60;;;2.75;;
68176;SDS011;56478;50.982;7.032;2022-09-17T06:01:20;8.20;;;2.30;;
68176;SDS011;56478;50.982;7.032;2022-09-17T06:03:46;7.43;;;2.72;;
68176;SDS011;56478;50.982;7.032;2022-09-17T06:06:12;6.60;;;2.65;;
68176;SDS011;56478;50.982;7.032;2022-09-17T06:08:37;10.13;;;1.92;;
68176;SDS011;56478;50.982;7.032;2022-09-17T06:11:06;6.35;;;1.85;;
68176;SDS011;56478;50.982;7.032;2022-09-17T06:13:32;6.88;;;1.70;;
68176;SDS011;56478;50.982;7.032;2022-09-17T06:15:59;4.53;;;1.50;;
68176;SDS011;56478;50.982;7.032;2022-09-17T06:18:25;8.38;;;1.52;;
68176;SDS011;56478;50.982;7.032;2022-09-17T06:20:55;6.82;;;1.95;;
68176;SDS011;56478;50.982;7.032;2022-09-17T06:23:22;6.18;;;1.85;;
68176;SDS011;56478;50.982;7.032;2022-09-17T06:25:55;6.38;;;1.70;;
68176;SDS011;56478;50.982;7.032;2022-09-17T06:28:22;6.47;;;1.80;;
68176;SDS011;56478;50.982;7.032;2022-09-17T06:30:51;4.43;;;1.85;;
68176;SDS011;56478;50.982;7.032;2022-09-17T06:33:21;6.88;;;1.60;;
68176;SDS011;56478;50.982;7.032;2022-09-17T06:35:47;4.00;;;1.70;;
68176;SDS011;56478;50.982;7.032;2022-09-17T06:38:20;6.28;;;1.92;;
68176;SDS011;56478;50.982;7.032;2022-09-17T06:40:49;9.07;;;1.85;;
68176;SDS011;56478;50.982;7.032;2022-09-17T06:43:18;4.88;;;1.70;;
68176;SDS011;56478;50.982;7.032;2022-09-17T06:45:50;8.75;;;1.90;;
68176;SDS011;56478;50.982;7.032;2022-09-17T06:48:26;6.65;;;1.70;;
68176;SDS011;56478;50.982;7.032;2022-09-17T06:50:53;7.15;;;2.20;;
68176;SDS011;56478;50.982;7.032;2022-09-17T06:53:22;6.43;;;2.00;;
68176;SDS011;56478;50.982;7.032;2022-09-17T06:55:48;7.50;;;1.85;;
68176;SDS011;56478;50.982;7.032;2022-09-17T06:58:14;8.75;;;1.90;;
68176;SDS011;56478;50.982;7.032;2022-09-17T07:00:40;7.28;;;1.58;;
68176;SDS011;56478;50.982;7.032;2022-09-17T07:03:05;6.68;;;1.85;;
68176;SDS011;56478;50.982;7.032;2022-09-17T07:05:31;8.43;;;1.90;;
68176;SDS011;56478;50.982;7.032;2022-09-17T07:07:59;7.13;;;1.98;;
68176;SDS011;56478;50.982;7.032;2022-09-17T07:12:51;8.40;;;1.70;;
68176;SDS011;56478;50.982;7.032;2022-09-17T07:15:17;6.47;;;1.55;;
68176;SDS011;56478;50.982;7.032;2022-09-17T07:17:43;5.30;;;1.50;;
68176;SDS011;56478;50.982;7.032;2022-09-17T07:20:10;4.50;;;1.90;;
68176;SDS011;56478;50.982;7.032;2022-09-17T07:22:35;6.25;;;2.17;;
68176;SDS011;56478;50.982;7.032;2022-09-17T07:25:01;4.18;;;2.08;;
68176;SDS011;56478;50.982;7.032;2022-09-17T07:27:28;6.28;;;2.20;;
68176;SDS011;56478;50.982;7.032;2022-09-17T07:29:55;6.47;;;1.95;;
68176;SDS011;56478;50.982;7.032;2022-09-17T07:32:21;3.40;;;1.40;;
68176;SDS011;56478;50.982;7.032;2022-09-17T07:34:47;4.97;;;1.70;;
68176;SDS011;56478;50.982;7.032;2022-09-17T07:37:13;4.55;;;1.70;;
68176;SDS011;56478;50.982;7.032;2022-09-17T07:39:40;8.05;;;1.98;;
68176;SDS011;56478;50.982;7.032;2022-09-17T07:42:06;7.13;;;1.92;;
68176;SDS011;56478;50.982;7.032;2022-09-17T07:44:32;6.80;;;1.80;;
68176;SDS011;56478;50.982;7.032;2022-09-17T07:46:58;7.20;;;2.00;;
68176;SDS011;56478;50.982;7.032;2022-09-17T07:49:23;11.27;;;2.25;;
68176;SDS011;56478;50.982;7.032;2022-09-17T07:51:49;5.47;;;1.75;;
68176;SDS011;56478;50.982;7.032;2022-09-17T07:54:14;6.15;;;2.10;;
68176;SDS011;56478;50.982;7.032;2022-09-17T07:56:40;7.75;;;1.88;;
68176;SDS011;56478;50.982;7.032;2022-09-17T07:59:05;6.78;;;1.95;;
68176;SDS011;56478;50.982;7.032;2022-09-17T08:01:31;7.93;;;2.15;;
68176;SDS011;56478;50.982;7.032;2022-09-17T08:04:00;5.47;;;1.98;;
68176;SDS011;56478;50.982;7.032;2022-09-17T08:06:27;13.70;;;2.20;;
68176;SDS011;56478;50.982;7.032;2022-09-17T08:08:53;5.60;;;2.00;;
68176;SDS011;56478;50.982;7.032;2022-09-17T08:11:20;5.30;;;1.83;;
68176;SDS011;56478;50.982;7.032;2022-09-17T08:13:49;5.78;;;1.90;;
68176;SDS011;56478;50.982;7.032;2022-09-17T08:16:15;5.00;;;2.03;;
68176;SDS011;56478;50.982;7.032;2022-09-17T08:18:42;4.60;;;1.80;;
68176;SDS011;56478;50.982;7.032;2022-09-17T08:21:10;4.70;;;1.90;;
68176;SDS011;56478;50.982;7.032;2022-09-17T08:23:37;6.47;;;2.00;;
68176;SDS011;56478;50.982;7.032;2022-09-17T08:26:05;6.25;;;2.00;;
68176;SDS011;56478;50.982;7.032;2022-09-17T08:28:33;4.80;;;1.70;;
68176;SDS011;56478;50.982;7.032;2022-09-17T08:31:00;3.38;;;1.67;;
68176;SDS011;56478;50.982;7.032;2022-09-17T08:33:29;4.22;;;1.88;;
68176;SDS011;56478;50.982;7.032;2022-09-17T08:35:56;3.90;;;1.77;;
68176;SDS011;56478;50.982;7.032;2022-09-17T08:38:25;2.92;;;1.50;;
68176;SDS011;56478;50.982;7.032;2022-09-17T08:43:41;6.18;;;1.95;;
68176;SDS011;56478;50.982;7.032;2022-09-17T08:46:18;4.97;;;1.80;;
68176;SDS011;56478;50.982;7.032;2022-09-17T08:48:49;4.95;;;1.77;;
68176;SDS011;56478;50.982;7.032;2022-09-17T08:54:32;6.47;;;1.73;;
68176;SDS011;56478;50.982;7.032;2022-09-17T09:00:49;3.78;;;1.60;;
68176;SDS011;56478;50.982;7.032;2022-09-17T09:06:10;2.83;;;1.67;;
68176;SDS011;56478;50.982;7.032;2022-09-17T09:08:41;4.87;;;1.73;;
68176;SDS011;56478;50.982;7.032;2022-09-17T09:11:11;7.78;;;1.80;;
68176;SDS011;56478;50.982;7.032;2022-09-17T09:13:41;5.40;;;1.70;;
68176;SDS011;56478;50.982;7.032;2022-09-17T09:16:25;3.25;;;1.70;;
68176;SDS011;56478;50.982;7.032;2022-09-17T09:18:55;6.32;;;1.73;;
68176;SDS011;56478;50.982;7.032;2022-09-17T09:22:03;4.28;;;1.65;;
68176;SDS011;56478;50.982;7.032;2022-09-17T09:35:31;7.05;;;1.70;;
68176;SDS011;56478;50.982;7.032;2022-09-17T09:38:00;3.83;;;1.70;;
68176;SDS011;56478;50.982;7.032;2022-09-17T09:40:46;6.03;;;1.85;;
68176;SDS011;56478;50.982;7.032;2022-09-17T09:43:23;3.70;;;1.65;;
68176;SDS011;56478;50.982;7.032;2022-09-17T09:49:00;2.57;;;1.30;;
68176;SDS011;56478;50.982;7.032;2022-09-17T09:51:58;4.90;;;1.63;;
68176;SDS011;56478;50.982;7.032;2022-09-17T09:57:47;3.58;;;1.50;;
68176;SDS011;56478;50.982;7.032;2022-09-17T10:00:22;2.65;;;1.30;;
68176;SDS011;56478;50.982;7.032;2022-09-17T10:03:34;3.15;;;1.67;;
68176;SDS011;56478;50.982;7.032;2022-09-17T10:08:22;2.83;;;1.50;;
68176;SDS011;56478;50.982;7.032;2022-09-17T10:10:53;5.45;;;1.42;;
68176;SDS011;56478;50.982;7.032;2022-09-17T10:13:19;5.20;;;1.30;;
68176;SDS011;56478;50.982;7.032;2022-09-17T10:15:45;2.42;;;1.25;;
68176;SDS011;56478;50.982;7.032;2022-09-17T10:18:13;5.22;;;1.77;;
68176;SDS011;56478;50.982;7.032;2022-09-17T10:20:54;5.55;;;1.35;;
68176;SDS011;56478;50.982;7.032;2022-09-17T10:23:22;9.68;;;1.42;;
68176;SDS011;56478;50.982;7.032;2022-09-17T10:25:50;5.10;;;1.75;;
68176;SDS011;56478;50.982;7.032;2022-09-17T10:31:04;5.72;;;1.77;;
68176;SDS011;56478;50.982;7.032;2022-09-17T10:33:35;3.13;;;1.30;;
68176;SDS011;56478;50.982;7.032;2022-09-17T10:36:08;2.50;;;1.27;;
68176;SDS011;56478;50.982;7.032;2022-09-17T10:38:38;5.32;;;1.52;;
68176;SDS011;56478;50.982;7.032;2022-09-17T10:43:35;2.72;;;1.50;;
68176;SDS011;56478;50.982;7.032;2022-09-17T10:46:01;3.50;;;1.27;;
68176;SDS011;56478;50.982;7.032;2022-09-17T10:48:30;5.22;;;1.67;;
68176;SDS011;56478;50.982;7.032;2022-09-17T10:50:57;4.43;;;1.35;;
68176;SDS011;56478;50.982;7.032;2022-09-17T10:53:25;5.15;;;1.30;;
68176;SDS011;56478;50.982;7.032;2022-09-17T10:56:15;2.47;;;1.13;;
68176;SDS011;56478;50.982;7.032;2022-09-17T11:01:43;2.35;;;1.30;;
68176;SDS011;56478;50.982;7.032;2022-09-17T11:23:40;5.00;;;1.77;;
68176;SDS011;56478;50.982;7.032;2022-09-17T11:39:57;2.45;;;1.25;;
68176;SDS011;56478;50.982;7.032;2022-09-17T11:45:22;3.70;;;1.02;;
68176;SDS011;56478;50.982;7.032;2022-09-17T11:47:59;3.22;;;1.20;;
68176;SDS011;56478;50.982;7.032;2022-09-17T11:50:30;2.63;;;1.10;;
68176;SDS011;56478;50.982;7.032;2022-09-17T11:55:52;2.80;;;1.52;;
68176;SDS011;56478;50.982;7.032;2022-09-17T11:58:24;3.17;;;1.33;;
68176;SDS011;56478;50.982;7.032;2022-09-17T12:01:09;3.65;;;1.00;;
68176;SDS011;56478;50.982;7.032;2022-09-17T12:03:40;2.15;;;1.05;;
68176;SDS011;56478;50.982;7.032;2022-09-17T12:06:31;3.58;;;0.88;;
68176;SDS011;56478;50.982;7.032;2022-09-17T12:11:46;1.85;;;0.73;;
68176;SDS011;56478;50.982;7.032;2022-09-17T12:14:30;1.80;;;1.02;;
68176;SDS011;56478;50.982;7.032;2022-09-17T12:17:02;0.90;;;0.60;;
68176;SDS011;56478;50.982;7.032;2022-09-17T12:19:42;1.38;;;0.98;;
68176;SDS011;56478;50.982;7.032;2022-09-17T12:22:13;2.75;;;1.00;;
68176;SDS011;56478;50.982;7.032;2022-09-17T12:24:41;2.72;;;1.40;;
68176;SDS011;56478;50.982;7.032;2022-09-17T12:35:45;2.40;;;1.30;;
68176;SDS011;56478;50.982;7.032;2022-09-17T12:40:59;3.10;;;1.20;;
68176;SDS011;56478;50.982;7.032;2022-09-17T12:46:26;1.15;;;0.90;;
68176;SDS011;56478;50.982;7.032;2022-09-17T12:59:48;3.55;;;1.42;;
68176;SDS011;56478;50.982;7.032;2022-09-17T13:02:18;6.97;;;1.42;;
68176;SDS011;56478;50.982;7.032;2022-09-17T13:05:15;2.13;;;1.13;;
68176;SDS011;56478;50.982;7.032;2022-09-17T13:19:29;2.67;;;1.02;;
68176;SDS011;56478;50.982;7.032;2022-09-17T13:22:06;1.83;;;0.77;;
68176;SDS011;56478;50.982;7.032;2022-09-17T13:24:37;1.60;;;0.75;;
68176;SDS011;56478;50.982;7.032;2022-09-17T13:27:04;2.03;;;0.90;;
68176;SDS011;56478;50.982;7.032;2022-09-17T13:35:10;1.60;;;1.00;;
68176;SDS011;56478;50.982;7.032;2022-09-17T13:37:43;1.15;;;0.90;;
68176;SDS011;56478;50.982;7.032;2022-09-17T13:40:31;1.67;;;1.00;;
68176;SDS011;56478;50.982;7.032;2022-09-17T13:43:12;2.35;;;1.05;;
68176;SDS011;56478;50.982;7.032;2022-09-17T13:48:44;2.13;;;0.88;;
68176;SDS011;56478;50.982;7.032;2022-09-17T13:54:06;1.45;;;0.80;;
68176;SDS011;56478;50.982;7.032;2022-09-17T13:56:38;0.88;;;0.75;;
68176;SDS011;56478;50.982;7.032;2022-09-17T13:59:11;3.10;;;0.90;;
68176;SDS011;56478;50.982;7.032;2022-09-17T14:09:51;0.80;;;0.80;;
68176;SDS011;56478;50.982;7.032;2022-09-17T14:18:04;2.75;;;1.10;;
68176;SDS011;56478;50.982;7.032;2022-09-17T14:21:14;2.45;;;1.90;;
68176;SDS011;56478;50.982;7.032;2022-09-17T14:23:48;2.85;;;2.00;;
68176;SDS011;56478;50.982;7.032;2022-09-17T14:26:24;1.80;;;1.67;;
68176;SDS011;56478;50.982;7.032;2022-09-17T14:29:01;2.83;;;2.63;;
68176;SDS011;56478;50.982;7.032;2022-09-17T14:31:40;4.18;;;2.67;;
68176;SDS011;56478;50.982;7.032;2022-09-17T14:34:07;2.90;;;2.28;;
68176;SDS011;56478;50.982;7.032;2022-09-17T14:36:40;2.78;;;2.10;;
68176;SDS011;56478;50.982;7.032;2022-09-17T14:39:12;2.80;;;2.10;;
68176;SDS011;56478;50.982;7.032;2022-09-17T14:41:44;2.70;;;2.00;;
68176;SDS011;56478;50.982;7.032;2022-09-17T14:46:52;7.50;;;2.03;;
68176;SDS011;56478;50.982;7.032;2022-09-17T14:49:32;10.65;;;2.45;;
68176;SDS011;56478;50.982;7.032;2022-09-17T14:51:59;5.07;;;1.95;;
68176;SDS011;56478;50.982;7.032;2022-09-17T14:54:31;1.92;;;1.25;;
68176;SDS011;56478;50.982;7.032;2022-09-17T14:57:01;2.85;;;1.20;;
68176;SDS011;56478;50.982;7.032;2022-09-17T15:05:00;2.80;;;1.17;;
68176;SDS011;56478;50.982;7.032;2022-09-17T15:07:28;2.85;;;1.15;;
68176;SDS011;56478;50.982;7.032;2022-09-17T15:09:53;1.52;;;1.00;;
68176;SDS011;56478;50.982;7.032;2022-09-17T15:12:29;4.22;;;1.42;;
68176;SDS011;56478;50.982;7.032;2022-09-17T15:14:55;3.35;;;1.27;;
68176;SDS011;56478;50.982;7.032;2022-09-17T15:17:22;3.50;;;1.02;;
68176;SDS011;56478;50.982;7.032;2022-09-17T15:19:49;3.63;;;1.30;;
68176;SDS011;56478;50.982;7.032;2022-09-17T15:22:28;5.95;;;3.33;;
68176;SDS011;56478;50.982;7.032;2022-09-17T15:25:22;7.20;;;2.97;;
68176;SDS011;56478;50.982;7.032;2022-09-17T15:27:50;5.15;;;2.30;;
68176;SDS011;56478;50.982;7.032;2022-09-17T15:30:20;5.53;;;1.50;;
68176;SDS011;56478;50.982;7.032;2022-09-17T15:33:08;3.63;;;1.33;;
68176;SDS011;56478;50.982;7.032;2022-09-17T15:35:35;3.55;;;1.45;;
68176;SDS011;56478;50.982;7.032;2022-09-17T15:38:02;4.30;;;1.60;;
68176;SDS011;56478;50.982;7.032;2022-09-17T15:40:43;4.05;;;1.40;;
68176;SDS011;56478;50.982;7.032;2022-09-17T15:43:29;4.18;;;1.30;;
68176;SDS011;56478;50.982;7.032;2022-09-17T15:46:03;3.58;;;1.60;;
68176;SDS011;56478;50.982;7.032;2022-09-17T15:48:59;2.60;;;1.30;;
68176;SDS011;56478;50.982;7.032;2022-09-17T15:53:59;7.53;;;1.70;;
68176;SDS011;56478;50.982;7.032;2022-09-17T15:56:30;6.13;;;2.05;;
68176;SDS011;56478;50.982;7.032;2022-09-17T15:58:59;5.22;;;1.80;;
68176;SDS011;56478;50.982;7.032;2022-09-17T16:04:15;6.05;;;1.70;;
68176;SDS011;56478;50.982;7.032;2022-09-17T16:07:16;4.25;;;1.60;;
68176;SDS011;56478;50.982;7.032;2022-09-17T16:12:10;6.03;;;1.77;;
68176;SDS011;56478;50.982;7.032;2022-09-17T16:14:37;3.30;;;2.00;;
68176;SDS011;56478;50.982;7.032;2022-09-17T16:20:18;3.95;;;1.70;;
68176;SDS011;56478;50.982;7.032;2022-09-17T16:22:48;4.72;;;2.17;;
68176;SDS011;56478;50.982;7.032;2022-09-17T16:25:18;5.53;;;2.20;;
68176;SDS011;56478;50.982;7.032;2022-09-17T16:27:49;6.38;;;2.10;;
68176;SDS011;56478;50.982;7.032;2022-09-17T16:30:22;4.97;;;2.33;;
68176;SDS011;56478;50.982;7.032;2022-09-17T16:32:48;3.50;;;1.88;;
68176;SDS011;56478;50.982;7.032;2022-09-17T16:35:15;4.47;;;1.80;;
68176;SDS011;56478;50.982;7.032;2022-09-17T16:37:43;6.57;;;1.70;;
68176;SDS011;56478;50.982;7.032;2022-09-17T16:40:10;4.63;;;1.70;;
68176;SDS011;56478;50.982;7.032;2022-09-17T16:42:36;6.47;;;1.70;;
68176;SDS011;56478;50.982;7.032;2022-09-17T16:45:02;4.93;;;1.33;;
68176;SDS011;56478;50.982;7.032;2022-09-17T16:47:32;4.18;;;1.67;;
68176;SDS011;56478;50.982;7.032;2022-09-17T16:49:58;9.30;;;1.75;;
68176;SDS011;56478;50.982;7.032;2022-09-17T16:52:24;5.90;;;1.85;;
68176;SDS011;56478;50.982;7.032;2022-09-17T16:54:49;5.68;;;1.42;;
68176;SDS011;56478;50.982;7.032;2022-09-17T16:57:15;7.35;;;1.73;;
68176;SDS011;56478;50.982;7.032;2022-09-17T16:59:40;3.90;;;1.35;;
68176;SDS011;56478;50.982;7.032;2022-09-17T17:02:06;7.28;;;2.17;;
68176;SDS011;56478;50.982;7.032;2022-09-17T17:04:33;8.38;;;1.70;;
68176;SDS011;56478;50.982;7.032;2022-09-17T17:06:58;3.63;;;1.58;;
68176;SDS011;56478;50.982;7.032;2022-09-17T17:09:24;7.15;;;1.80;;
68176;SDS011;56478;50.982;7.032;2022-09-17T17:11:50;7.53;;;1.90;;
68176;SDS011;56478;50.982;7.032;2022-09-17T17:14:15;5.65;;;1.70;;
68176;SDS011;56478;50.982;7.032;2022-09-17T17:16:41;5.30;;;1.70;;
68176;SDS011;56478;50.982;7.032;2022-09-17T17:19:07;7.28;;;1.92;;
68176;SDS011;56478;50.982;7.032;2022-09-17T17:21:33;7.65;;;1.52;;
68176;SDS011;56478;50.982;7.032;2022-09-17T17:23:59;6.38;;;1.45;;
68176;SDS011;56478;50.982;7.032;2022-09-17T17:26:24;5.13;;;1.42;;
68176;SDS011;56478;50.982;7.032;2022-09-17T17:28:50;3.58;;;1.50;;
68176;SDS011;56478;50.982;7.032;2022-09-17T17:31:15;7.93;;;1.40;;
68176;SDS011;56478;50.982;7.032;2022-09-17T17:33:41;13.05;;;1.92;;
68176;SDS011;56478;50.982;7.032;2022-09-17T17:36:06;5.32;;;1.70;;
68176;SDS011;56478;50.982;7.032;2022-09-17T17:38:32;4.03;;;1.30;;
68176;SDS011;56478;50.982;7.032;2022-09-17T17:41:01;3.35;;;1.40;;
68176;SDS011;56478;50.982;7.032;2022-09-17T17:43:28;6.43;;;1.77;;
68176;SDS011;56478;50.982;7.032;2022-09-17T17:45:54;5.30;;;1.58;;
68176;SDS011;56478;50.982;7.032;2022-09-17T17:48:19;5.22;;;1.40;;
68176;SDS011;56478;50.982;7.032;2022-09-17T17:50:45;7.88;;;1.67;;
68176;SDS011;56478;50.982;7.032;2022-09-17T17:53:10;4.75;;;1.52;;
68176;SDS011;56478;50.982;7.032;2022-09-17T17:55:36;4.93;;;1.60;;
68176;SDS011;56478;50.982;7.032;2022-09-17T17:58:01;8.75;;;1.77;;
68176;SDS011;56478;50.982;7.032;2022-09-17T18:00:27;2.78;;;1.40;;
68176;SDS011;56478;50.982;7.032;2022-09-17T18:02:53;4.18;;;1.90;;
68176;SDS011;56478;50.982;7.032;2022-09-17T18:05:18;4.45;;;1.90;;
68176;SDS011;56478;50.982;7.032;2022-09-17T18:07:44;3.80;;;2.00;;
68176;SDS011;56478;50.982;7.032;2022-09-17T18:10:09;4.63;;;1.80;;
68176;SDS011;56478;50.982;7.032;2022-09-17T18:12:35;6.05;;;1.80;;
68176;SDS011;56478;50.982;7.032;2022-09-17T18:15:01;6.03;;;1.60;;
68176;SDS011;56478;50.982;7.032;2022-09-17T18:17:28;4.78;;;1.52;;
68176;SDS011;56478;50.982;7.032;2022-09-17T18:19:55;5.22;;;1.50;;
68176;SDS011;56478;50.982;7.032;2022-09-17T18:22:21;4.57;;;1.50;;
68176;SDS011;56478;50.982;7.032;2022-09-17T18:24:47;5.75;;;1.83;;
68176;SDS011;56478;50.982;7.032;2022-09-17T18:27:13;5.82;;;1.50;;
68176;SDS011;56478;50.982;7.032;2022-09-17T18:29:39;7.90;;;1.77;;
68176;SDS011;56478;50.982;7.032;2022-09-17T18:32:04;6.80;;;1.50;;
68176;SDS011;56478;50.982;7.032;2022-09-17T18:34:30;6.13;;;1.70;;
68176;SDS011;56478;50.982;7.032;2022-09-17T18:36:56;9.35;;;1.60;;
68176;SDS011;56478;50.982;7.032;2022-09-17T18:39:21;4.43;;;1.48;;
68176;SDS011;56478;50.982;7.032;2022-09-17T18:41:47;5.55;;;1.40;;
68176;SDS011;56478;50.982;7.032;2022-09-17T18:44:13;4.50;;;1.60;;
68176;SDS011;56478;50.982;7.032;2022-09-17T18:46:38;3.67;;;1.60;;